sensor_id;sensor_type;location;lat;lon;timestamp;P1;durP1;ratioP1;P2;durP2;ratioP2
52124;SDS011;38119;52.710;6.398;2023-07-08T00:00:51;8.20;;;4.63;;
52124;SDS011;38119;52.710;6.398;2023-07-08T00:03:17;8.27;;;4.65;;
52124;SDS011;38119;52.710;6.398;2023-07-08T00:05:44;8.70;;;4.93;;
52124;SDS011;38119;52.710;6.398;2023-07-08T00:08:15;8.27;;;4.60;;
52124;SDS011;38119;52.710;6.398;2023-07-08T00:10:42;7.22;;;4.60;;
52124;SDS011;38119;52.710;6.398;2023-07-08T00:13:08;8.50;;;4.88;;
52124;SDS011;38119;52.710;6.398;2023-07-08T00:15:34;8.73;;;4.53;;
52124;SDS011;38119;52.710;6.398;2023-07-08T00:18:03;10.02;;;4.80;;
52124;SDS011;38119;52.710;6.398;2023-07-08T00:20:40;8.33;;;4.73;;
52124;SDS011;38119;52.710;6.398;2023-07-08T00:23:11;8.43;;;4.70;;
52124;SDS011;38119;52.710;6.398;2023-07-08T00:25:37;7.05;;;4.70;;
52124;SDS011;38119;52.710;6.398;2023-07-08T00:28:09;8.30;;;4.85;;
52124;SDS011;38119;52.710;6.398;2023-07-08T00:30:42;9.48;;;4.93;;
52124;SDS011;38119;52.710;6.398;2023-07-08T00:33:08;8.38;;;4.75;;
52124;SDS011;38119;52.710;6.398;2023-07-08T00:35:35;7.20;;;4.50;;
52124;SDS011;38119;52.710;6.398;2023-07-08T00:38:22;9.17;;;4.80;;
52124;SDS011;38119;52.710;6.398;2023-07-08T00:41:38;8.30;;;4.82;;
52124;SDS011;38119;52.710;6.398;2023-07-08T00:43:51;9.63;;;4.80;;
52124;SDS011;38119;52.710;6.398;2023-07-08T00:48:58;8.25;;;4.50;;
52124;SDS011;38119;52.710;6.398;2023-07-08T00:51:31;7.07;;;4.40;;
52124;SDS011;38119;52.710;6.398;2023-07-08T00:53:57;7.78;;;4.93;;
52124;SDS011;38119;52.710;6.398;2023-07-08T00:56:24;7.15;;;4.78;;
52124;SDS011;38119;52.710;6.398;2023-07-08T00:59:01;7.73;;;4.87;;
52124;SDS011;38119;52.710;6.398;2023-07-08T01:01:32;8.73;;;4.82;;
52124;SDS011;38119;52.710;6.398;2023-07-08T01:04:05;8.43;;;5.07;;
52124;SDS011;38119;52.710;6.398;2023-07-08T01:06:40;7.68;;;4.88;;
52124;SDS011;38119;52.710;6.398;2023-07-08T01:09:10;7.60;;;5.00;;
52124;SDS011;38119;52.710;6.398;2023-07-08T01:11:39;8.38;;;4.97;;
52124;SDS011;38119;52.710;6.398;2023-07-08T01:14:06;10.13;;;5.38;;
52124;SDS011;38119;52.710;6.398;2023-07-08T01:16:34;7.85;;;4.90;;
52124;SDS011;38119;52.710;6.398;2023-07-08T01:19:00;10.23;;;5.00;;
52124;SDS011;38119;52.710;6.398;2023-07-08T01:21:32;7.55;;;5.13;;
52124;SDS011;38119;52.710;6.398;2023-07-08T01:24:07;10.93;;;5.30;;
52124;SDS011;38119;52.710;6.398;2023-07-08T01:26:36;8.88;;;4.95;;
52124;SDS011;38119;52.710;6.398;2023-07-08T01:29:09;8.60;;;5.10;;
52124;SDS011;38119;52.710;6.398;2023-07-08T01:31:36;7.75;;;5.05;;
52124;SDS011;38119;52.710;6.398;2023-07-08T01:34:02;7.75;;;5.63;;
52124;SDS011;38119;52.710;6.398;2023-07-08T01:36:31;10.02;;;5.45;;
52124;SDS011;38119;52.710;6.398;2023-07-08T01:39:03;8.13;;;5.35;;
52124;SDS011;38119;52.710;6.398;2023-07-08T01:41:29;8.52;;;5.40;;
52124;SDS011;38119;52.710;6.398;2023-07-08T01:43:55;10.70;;;5.55;;
52124;SDS011;38119;52.710;6.398;2023-07-08T01:46:22;10.68;;;5.70;;
52124;SDS011;38119;52.710;6.398;2023-07-08T01:48:58;8.18;;;5.40;;
52124;SDS011;38119;52.710;6.398;2023-07-08T01:51:25;10.03;;;5.67;;
52124;SDS011;38119;52.710;6.398;2023-07-08T01:53:52;9.87;;;5.47;;
52124;SDS011;38119;52.710;6.398;2023-07-08T01:56:17;8.27;;;5.20;;
52124;SDS011;38119;52.710;6.398;2023-07-08T01:58:43;7.93;;;5.40;;
52124;SDS011;38119;52.710;6.398;2023-07-08T02:01:09;8.65;;;5.40;;
52124;SDS011;38119;52.710;6.398;2023-07-08T02:03:35;7.90;;;5.38;;
52124;SDS011;38119;52.710;6.398;2023-07-08T02:06:01;8.38;;;5.60;;
52124;SDS011;38119;52.710;6.398;2023-07-08T02:08:28;7.70;;;5.40;;
52124;SDS011;38119;52.710;6.398;2023-07-08T02:10:57;10.30;;;5.70;;
52124;SDS011;38119;52.710;6.398;2023-07-08T02:13:23;8.90;;;5.20;;
52124;SDS011;38119;52.710;6.398;2023-07-08T02:15:50;8.55;;;5.40;;
52124;SDS011;38119;52.710;6.398;2023-07-08T02:18:16;8.52;;;5.40;;
52124;SDS011;38119;52.710;6.398;2023-07-08T02:20:44;8.20;;;5.95;;
52124;SDS011;38119;52.710;6.398;2023-07-08T02:23:10;8.10;;;5.20;;
52124;SDS011;38119;52.710;6.398;2023-07-08T02:25:36;9.00;;;5.50;;
52124;SDS011;38119;52.710;6.398;2023-07-08T02:28:02;9.27;;;5.63;;
52124;SDS011;38119;52.710;6.398;2023-07-08T02:30:28;8.35;;;5.50;;
52124;SDS011;38119;52.710;6.398;2023-07-08T02:32:53;8.47;;;6.07;;
52124;SDS011;38119;52.710;6.398;2023-07-08T02:35:26;9.38;;;5.53;;
52124;SDS011;38119;52.710;6.398;2023-07-08T02:37:54;8.52;;;5.40;;
52124;SDS011;38119;52.710;6.398;2023-07-08T02:40:21;7.25;;;5.13;;
52124;SDS011;38119;52.710;6.398;2023-07-08T02:42:47;9.70;;;5.28;;
52124;SDS011;38119;52.710;6.398;2023-07-08T02:45:14;8.98;;;5.53;;
52124;SDS011;38119;52.710;6.398;2023-07-08T02:47:40;7.97;;;5.05;;
52124;SDS011;38119;52.710;6.398;2023-07-08T02:50:07;10.02;;;5.43;;
52124;SDS011;38119;52.710;6.398;2023-07-08T02:52:34;7.60;;;5.45;;
52124;SDS011;38119;52.710;6.398;2023-07-08T02:54:59;8.45;;;5.13;;
52124;SDS011;38119;52.710;6.398;2023-07-08T02:57:25;7.60;;;5.22;;
52124;SDS011;38119;52.710;6.398;2023-07-08T02:59:51;8.60;;;5.90;;
52124;SDS011;38119;52.710;6.398;2023-07-08T03:02:16;8.77;;;5.27;;
52124;SDS011;38119;52.710;6.398;2023-07-08T03:04:42;7.50;;;5.40;;
52124;SDS011;38119;52.710;6.398;2023-07-08T03:07:08;8.60;;;5.50;;
52124;SDS011;38119;52.710;6.398;2023-07-08T03:09:39;8.18;;;5.70;;
52124;SDS011;38119;52.710;6.398;2023-07-08T03:12:06;6.93;;;5.55;;
52124;SDS011;38119;52.710;6.398;2023-07-08T03:14:33;11.20;;;5.93;;
52124;SDS011;38119;52.710;6.398;2023-07-08T03:16:58;9.20;;;6.00;;
52124;SDS011;38119;52.710;6.398;2023-07-08T03:19:24;9.23;;;5.83;;
52124;SDS011;38119;52.710;6.398;2023-07-08T03:21:50;9.35;;;5.82;;
52124;SDS011;38119;52.710;6.398;2023-07-08T03:24:17;8.60;;;6.32;;
52124;SDS011;38119;52.710;6.398;2023-07-08T03:26:43;8.98;;;6.32;;
52124;SDS011;38119;52.710;6.398;2023-07-08T03:29:13;10.07;;;6.40;;
52124;SDS011;38119;52.710;6.398;2023-07-08T03:31:40;9.18;;;6.38;;
52124;SDS011;38119;52.710;6.398;2023-07-08T03:34:07;10.02;;;6.63;;
52124;SDS011;38119;52.710;6.398;2023-07-08T03:36:45;9.25;;;6.63;;
52124;SDS011;38119;52.710;6.398;2023-07-08T03:39:16;8.90;;;6.30;;
52124;SDS011;38119;52.710;6.398;2023-07-08T03:41:44;9.83;;;6.90;;
52124;SDS011;38119;52.710;6.398;2023-07-08T03:44:10;11.90;;;6.82;;
52124;SDS011;38119;52.710;6.398;2023-07-08T03:46:36;9.27;;;6.53;;
52124;SDS011;38119;52.710;6.398;2023-07-08T03:49:01;8.90;;;6.87;;
52124;SDS011;38119;52.710;6.398;2023-07-08T03:51:29;9.83;;;7.20;;
52124;SDS011;38119;52.710;6.398;2023-07-08T03:53:57;10.52;;;7.07;;
52124;SDS011;38119;52.710;6.398;2023-07-08T03:56:23;9.95;;;7.45;;
52124;SDS011;38119;52.710;6.398;2023-07-08T03:58:49;12.45;;;7.10;;
52124;SDS011;38119;52.710;6.398;2023-07-08T04:01:15;11.40;;;7.13;;
52124;SDS011;38119;52.710;6.398;2023-07-08T04:03:43;10.50;;;7.40;;
52124;SDS011;38119;52.710;6.398;2023-07-08T04:06:09;10.02;;;7.50;;
52124;SDS011;38119;52.710;6.398;2023-07-08T04:08:35;12.00;;;7.55;;
52124;SDS011;38119;52.710;6.398;2023-07-08T04:11:00;10.85;;;7.70;;
52124;SDS011;38119;52.710;6.398;2023-07-08T04:13:26;11.90;;;7.60;;
52124;SDS011;38119;52.710;6.398;2023-07-08T04:15:53;12.83;;;7.40;;
52124;SDS011;38119;52.710;6.398;2023-07-08T04:18:22;10.50;;;7.82;;
52124;SDS011;38119;52.710;6.398;2023-07-08T04:20:47;10.60;;;7.73;;
52124;SDS011;38119;52.710;6.398;2023-07-08T04:23:20;11.15;;;7.75;;
52124;SDS011;38119;52.710;6.398;2023-07-08T04:25:49;10.70;;;7.78;;
52124;SDS011;38119;52.710;6.398;2023-07-08T04:28:17;10.35;;;7.75;;
52124;SDS011;38119;52.710;6.398;2023-07-08T04:30:43;9.93;;;7.43;;
52124;SDS011;38119;52.710;6.398;2023-07-08T04:33:09;10.33;;;7.43;;
52124;SDS011;38119;52.710;6.398;2023-07-08T04:35:36;10.27;;;7.95;;
52124;SDS011;38119;52.710;6.398;2023-07-08T04:38:06;10.48;;;7.53;;
52124;SDS011;38119;52.710;6.398;2023-07-08T04:40:39;9.50;;;7.05;;
52124;SDS011;38119;52.710;6.398;2023-07-08T04:43:07;9.60;;;7.45;;
52124;SDS011;38119;52.710;6.398;2023-07-08T04:45:35;10.35;;;7.38;;
52124;SDS011;38119;52.710;6.398;2023-07-08T04:48:02;8.38;;;6.72;;
52124;SDS011;38119;52.710;6.398;2023-07-08T04:50:33;9.27;;;7.60;;
52124;SDS011;38119;52.710;6.398;2023-07-08T04:52:59;10.13;;;7.10;;
52124;SDS011;38119;52.710;6.398;2023-07-08T04:55:27;9.73;;;7.20;;
52124;SDS011;38119;52.710;6.398;2023-07-08T04:57:53;9.85;;;7.10;;
52124;SDS011;38119;52.710;6.398;2023-07-08T05:00:19;10.10;;;6.80;;
52124;SDS011;38119;52.710;6.398;2023-07-08T05:02:45;9.80;;;6.93;;
52124;SDS011;38119;52.710;6.398;2023-07-08T05:05:10;11.70;;;6.70;;
52124;SDS011;38119;52.710;6.398;2023-07-08T05:07:36;9.90;;;6.80;;
52124;SDS011;38119;52.710;6.398;2023-07-08T05:10:02;11.10;;;6.80;;
52124;SDS011;38119;52.710;6.398;2023-07-08T05:12:27;9.02;;;6.63;;
52124;SDS011;38119;52.710;6.398;2023-07-08T05:14:53;9.55;;;6.40;;
52124;SDS011;38119;52.710;6.398;2023-07-08T05:17:19;8.52;;;6.63;;
52124;SDS011;38119;52.710;6.398;2023-07-08T05:19:44;9.13;;;6.30;;
52124;SDS011;38119;52.710;6.398;2023-07-08T05:22:11;8.48;;;6.28;;
52124;SDS011;38119;52.710;6.398;2023-07-08T05:24:37;9.47;;;6.23;;
52124;SDS011;38119;52.710;6.398;2023-07-08T05:27:03;8.27;;;6.35;;
52124;SDS011;38119;52.710;6.398;2023-07-08T05:29:29;8.80;;;6.32;;
52124;SDS011;38119;52.710;6.398;2023-07-08T05:31:55;9.90;;;6.28;;
52124;SDS011;38119;52.710;6.398;2023-07-08T05:34:21;9.63;;;6.20;;
52124;SDS011;38119;52.710;6.398;2023-07-08T05:36:47;9.55;;;6.15;;
52124;SDS011;38119;52.710;6.398;2023-07-08T05:39:12;9.47;;;5.83;;
52124;SDS011;38119;52.710;6.398;2023-07-08T05:41:38;8.63;;;5.77;;
52124;SDS011;38119;52.710;6.398;2023-07-08T05:44:04;10.47;;;5.80;;
52124;SDS011;38119;52.710;6.398;2023-07-08T05:46:29;8.70;;;5.80;;
52124;SDS011;38119;52.710;6.398;2023-07-08T05:48:55;8.68;;;5.78;;
52124;SDS011;38119;52.710;6.398;2023-07-08T05:51:20;8.10;;;5.50;;
52124;SDS011;38119;52.710;6.398;2023-07-08T05:53:46;7.60;;;5.20;;
52124;SDS011;38119;52.710;6.398;2023-07-08T05:56:12;9.10;;;5.67;;
52124;SDS011;38119;52.710;6.398;2023-07-08T05:58:37;10.93;;;5.93;;
52124;SDS011;38119;52.710;6.398;2023-07-08T06:01:03;7.53;;;5.47;;
52124;SDS011;38119;52.710;6.398;2023-07-08T06:03:29;8.32;;;5.30;;
52124;SDS011;38119;52.710;6.398;2023-07-08T06:05:58;7.53;;;4.90;;
52124;SDS011;38119;52.710;6.398;2023-07-08T06:08:24;9.53;;;5.47;;
52124;SDS011;38119;52.710;6.398;2023-07-08T06:10:50;9.00;;;5.10;;
52124;SDS011;38119;52.710;6.398;2023-07-08T06:13:16;7.83;;;4.73;;
52124;SDS011;38119;52.710;6.398;2023-07-08T06:15:42;9.43;;;5.13;;
52124;SDS011;38119;52.710;6.398;2023-07-08T06:18:07;7.60;;;4.82;;
52124;SDS011;38119;52.710;6.398;2023-07-08T06:20:33;9.80;;;4.93;;
52124;SDS011;38119;52.710;6.398;2023-07-08T06:22:59;8.38;;;4.55;;
52124;SDS011;38119;52.710;6.398;2023-07-08T06:25:25;6.57;;;4.75;;
52124;SDS011;38119;52.710;6.398;2023-07-08T06:27:50;6.82;;;4.50;;
52124;SDS011;38119;52.710;6.398;2023-07-08T06:30:16;6.57;;;4.60;;
52124;SDS011;38119;52.710;6.398;2023-07-08T06:32:42;7.73;;;4.47;;
52124;SDS011;38119;52.710;6.398;2023-07-08T06:35:07;7.20;;;4.57;;
52124;SDS011;38119;52.710;6.398;2023-07-08T06:37:33;9.98;;;4.53;;
52124;SDS011;38119;52.710;6.398;2023-07-08T06:39:59;7.38;;;4.32;;
52124;SDS011;38119;52.710;6.398;2023-07-08T06:42:25;6.87;;;4.40;;
52124;SDS011;38119;52.710;6.398;2023-07-08T06:44:51;7.00;;;4.35;;
52124;SDS011;38119;52.710;6.398;2023-07-08T06:47:17;9.55;;;4.75;;
52124;SDS011;38119;52.710;6.398;2023-07-08T06:49:45;7.00;;;4.10;;
52124;SDS011;38119;52.710;6.398;2023-07-08T06:52:11;7.68;;;4.30;;
52124;SDS011;38119;52.710;6.398;2023-07-08T06:54:36;7.47;;;4.50;;
52124;SDS011;38119;52.710;6.398;2023-07-08T06:57:02;7.53;;;4.32;;
52124;SDS011;38119;52.710;6.398;2023-07-08T06:59:28;7.30;;;4.50;;
52124;SDS011;38119;52.710;6.398;2023-07-08T07:01:54;6.68;;;4.18;;
52124;SDS011;38119;52.710;6.398;2023-07-08T07:04:19;7.30;;;4.60;;
52124;SDS011;38119;52.710;6.398;2023-07-08T07:06:45;7.20;;;4.30;;
52124;SDS011;38119;52.710;6.398;2023-07-08T07:09:11;8.43;;;4.70;;
52124;SDS011;38119;52.710;6.398;2023-07-08T07:11:36;6.60;;;4.20;;
52124;SDS011;38119;52.710;6.398;2023-07-08T07:14:02;5.80;;;4.30;;
52124;SDS011;38119;52.710;6.398;2023-07-08T07:16:28;6.13;;;4.05;;
52124;SDS011;38119;52.710;6.398;2023-07-08T07:18:54;7.75;;;4.50;;
52124;SDS011;38119;52.710;6.398;2023-07-08T07:21:20;9.02;;;4.68;;
52124;SDS011;38119;52.710;6.398;2023-07-08T07:23:46;7.50;;;3.97;;
52124;SDS011;38119;52.710;6.398;2023-07-08T07:26:12;6.30;;;4.27;;
52124;SDS011;38119;52.710;6.398;2023-07-08T07:28:38;7.00;;;4.50;;
52124;SDS011;38119;52.710;6.398;2023-07-08T07:31:03;6.72;;;4.20;;
52124;SDS011;38119;52.710;6.398;2023-07-08T07:33:32;6.97;;;4.50;;
52124;SDS011;38119;52.710;6.398;2023-07-08T07:35:59;8.10;;;4.10;;
52124;SDS011;38119;52.710;6.398;2023-07-08T07:38:24;7.03;;;4.23;;
52124;SDS011;38119;52.710;6.398;2023-07-08T07:40:53;6.07;;;3.92;;
52124;SDS011;38119;52.710;6.398;2023-07-08T07:43:19;7.10;;;4.13;;
52124;SDS011;38119;52.710;6.398;2023-07-08T07:45:49;6.93;;;3.85;;
52124;SDS011;38119;52.710;6.398;2023-07-08T07:48:16;8.07;;;3.92;;
52124;SDS011;38119;52.710;6.398;2023-07-08T07:50:44;8.80;;;4.15;;
52124;SDS011;38119;52.710;6.398;2023-07-08T07:53:13;9.90;;;4.25;;
52124;SDS011;38119;52.710;6.398;2023-07-08T07:55:39;5.43;;;3.93;;
52124;SDS011;38119;52.710;6.398;2023-07-08T07:58:04;5.67;;;3.67;;
52124;SDS011;38119;52.710;6.398;2023-07-08T08:00:30;6.05;;;3.92;;
52124;SDS011;38119;52.710;6.398;2023-07-08T08:02:56;8.80;;;4.20;;
52124;SDS011;38119;52.710;6.398;2023-07-08T08:05:21;6.80;;;3.90;;
52124;SDS011;38119;52.710;6.398;2023-07-08T08:07:48;7.80;;;4.10;;
52124;SDS011;38119;52.710;6.398;2023-07-08T08:10:13;7.63;;;4.00;;
52124;SDS011;38119;52.710;6.398;2023-07-08T08:12:40;7.78;;;4.00;;
52124;SDS011;38119;52.710;6.398;2023-07-08T08:15:06;6.25;;;3.88;;
52124;SDS011;38119;52.710;6.398;2023-07-08T08:17:32;6.60;;;3.95;;
52124;SDS011;38119;52.710;6.398;2023-07-08T08:19:57;5.47;;;3.95;;
52124;SDS011;38119;52.710;6.398;2023-07-08T08:22:23;8.43;;;4.40;;
52124;SDS011;38119;52.710;6.398;2023-07-08T08:24:49;8.25;;;4.40;;
52124;SDS011;38119;52.710;6.398;2023-07-08T08:27:15;7.03;;;4.05;;
52124;SDS011;38119;52.710;6.398;2023-07-08T08:29:40;8.57;;;4.40;;
52124;SDS011;38119;52.710;6.398;2023-07-08T08:32:06;7.47;;;3.92;;
52124;SDS011;38119;52.710;6.398;2023-07-08T08:34:32;7.45;;;4.05;;
52124;SDS011;38119;52.710;6.398;2023-07-08T08:36:58;6.82;;;4.20;;
52124;SDS011;38119;52.710;6.398;2023-07-08T08:39:23;9.00;;;4.20;;
52124;SDS011;38119;52.710;6.398;2023-07-08T08:41:54;6.03;;;4.05;;
52124;SDS011;38119;52.710;6.398;2023-07-08T08:44:29;6.85;;;4.00;;
52124;SDS011;38119;52.710;6.398;2023-07-08T08:47:16;5.95;;;3.80;;
52124;SDS011;38119;52.710;6.398;2023-07-08T08:52:51;7.68;;;4.30;;
52124;SDS011;38119;52.710;6.398;2023-07-08T08:55:20;5.57;;;3.90;;
52124;SDS011;38119;52.710;6.398;2023-07-08T08:58:36;7.72;;;4.10;;
52124;SDS011;38119;52.710;6.398;2023-07-08T09:01:06;7.43;;;4.00;;
52124;SDS011;38119;52.710;6.398;2023-07-08T09:08:46;6.38;;;4.40;;
52124;SDS011;38119;52.710;6.398;2023-07-08T09:13:45;7.28;;;4.10;;
52124;SDS011;38119;52.710;6.398;2023-07-08T09:19:09;5.55;;;4.05;;
52124;SDS011;38119;52.710;6.398;2023-07-08T09:21:46;6.65;;;3.90;;
52124;SDS011;38119;52.710;6.398;2023-07-08T09:24:48;7.50;;;4.10;;
52124;SDS011;38119;52.710;6.398;2023-07-08T09:27:18;6.43;;;4.07;;
52124;SDS011;38119;52.710;6.398;2023-07-08T09:29:45;6.30;;;3.72;;
52124;SDS011;38119;52.710;6.398;2023-07-08T11:56:46;6.93;;;4.30;;
52124;SDS011;38119;52.710;6.398;2023-07-08T11:59:21;8.20;;;4.50;;
52124;SDS011;38119;52.710;6.398;2023-07-08T12:02:00;6.32;;;4.70;;
52124;SDS011;38119;52.710;6.398;2023-07-08T12:05:00;8.02;;;4.70;;
52124;SDS011;38119;52.710;6.398;2023-07-08T12:10:13;11.27;;;4.88;;
52124;SDS011;38119;52.710;6.398;2023-07-08T12:12:44;8.45;;;4.80;;
52124;SDS011;38119;52.710;6.398;2023-07-08T12:15:16;9.00;;;4.90;;
52124;SDS011;38119;52.710;6.398;2023-07-08T12:17:47;8.00;;;4.88;;
52124;SDS011;38119;52.710;6.398;2023-07-08T12:20:24;7.15;;;4.78;;
52124;SDS011;38119;52.710;6.398;2023-07-08T12:22:54;8.23;;;4.57;;
52124;SDS011;38119;52.710;6.398;2023-07-08T12:25:21;5.97;;;4.93;;
52124;SDS011;38119;52.710;6.398;2023-07-08T12:27:49;10.83;;;5.10;;
52124;SDS011;38119;52.710;6.398;2023-07-08T12:30:15;6.35;;;4.80;;
52124;SDS011;38119;52.710;6.398;2023-07-08T12:32:41;8.00;;;4.97;;
52124;SDS011;38119;52.710;6.398;2023-07-08T12:35:19;6.30;;;4.95;;
